Time;durP1;ratioP1;P1;durP2;ratioP2;P2;SDS_P1;SDS_P2;PMS_P1;PMS_P2;Temp;Humidity;BMP_temperature;BMP_pressure;BME280_temperature;BME280_humidity;BME280_pressure;Samples;Min_cycle;Max_cycle;Signal;HPM_P1;HPM_P2
2021/08/17 00:00:56;;;;;;;5.88;2.22;;;;;;;15.44;58.12;101905.34;5082657;28;20040;-60
2021/08/17 00:03:21;;;;;;;8.95;2.63;;;;;;;15.43;58.26;101911.56;5083420;28;20063;-58
2021/08/17 00:05:47;;;;;;;7.72;2.55;;;;;;;15.41;59.11;101914.22;5080985;28;20032;-56
2021/08/17 00:08:12;;;;;;;7.40;2.22;;;;;;;15.42;59.72;101907.13;5066783;28;20032;-56
2021/08/17 00:10:37;;;;;;;7.03;2.17;;;;;;;15.48;59.21;101902.69;5082565;28;20620;-57
2021/08/17 00:13:03;;;;;;;5.32;2.10;;;;;;;15.51;58.37;101910.63;5082695;28;20037;-58
2021/08/17 00:15:29;;;;;;;4.65;2.33;;;;;;;15.56;58.33;101913.25;5082034;28;20036;-57
2021/08/17 00:17:55;;;;;;;6.53;2.08;;;;;;;15.55;58.44;101909.69;5084322;28;20025;-57
2021/08/17 00:20:20;;;;;;;7.63;2.60;;;;;;;15.57;60.42;101907.06;5083740;28;20484;-56
2021/08/17 00:22:46;;;;;;;6.65;2.03;;;;;;;15.56;59.86;101900.88;5084988;28;20585;-57
2021/08/17 00:25:11;;;;;;;7.07;2.25;;;;;;;15.59;59.47;101899.97;5084544;28;20499;-59
2021/08/17 00:27:37;;;;;;;9.07;3.30;;;;;;;15.64;59.35;101899.97;5082712;28;20025;-57
2021/08/17 00:30:04;;;;;;;7.95;4.15;;;;;;;15.65;59.99;101896.41;5080765;28;20029;-55
2021/08/17 00:32:30;;;;;;;11.57;4.25;;;;;;;15.67;59.65;101892.88;5082920;28;20054;-58
2021/08/17 00:34:56;;;;;;;8.55;3.20;;;;;;;15.73;59.11;101892.88;5082550;28;20032;-58
2021/08/17 00:37:21;;;;;;;7.65;2.92;;;;;;;15.74;59.58;101897.25;5084153;28;20033;-57
2021/08/17 00:39:47;;;;;;;5.32;2.58;;;;;;;15.77;58.50;101897.25;5081468;28;20040;-55
2021/08/17 00:42:13;;;;;;;9.13;2.65;;;;;;;15.80;58.31;101893.69;5083826;28;20567;-56
2021/08/17 00:44:38;;;;;;;6.13;2.17;;;;;;;15.85;58.49;101886.59;5082399;28;20457;-58
2021/08/17 00:47:04;;;;;;;6.65;2.30;;;;;;;15.88;58.72;101877.72;5083993;28;20040;-58
2021/08/17 00:49:31;;;;;;;4.38;2.00;;;;;;;15.90;57.92;101884.81;5082784;28;20016;-57
2021/08/17 00:52:05;;;;;;;5.95;2.00;;;;;;;15.89;58.93;101869.78;5082709;28;20039;-57
2021/08/17 00:54:30;;;;;;;7.90;2.30;;;;;;;15.91;58.51;101877.72;5080831;28;20044;-57
2021/08/17 00:56:56;;;;;;;4.90;1.83;;;;;;;15.87;59.09;101876.00;5080992;28;20056;-59
2021/08/17 00:59:22;;;;;;;11.30;1.95;;;;;;;15.88;58.90;101870.69;5068463;28;21510;-58
2021/08/17 01:01:47;;;;;;;9.00;2.53;;;;;;;15.89;58.60;101872.44;5084402;28;20339;-57
2021/08/17 01:04:12;;;;;;;9.65;2.38;;;;;;;15.86;58.93;101880.41;5085272;28;20088;-55
2021/08/17 01:06:38;;;;;;;4.63;2.28;;;;;;;15.86;59.15;101879.53;5083444;28;20032;-56
2021/08/17 01:09:05;;;;;;;8.90;2.58;;;;;;;15.81;59.26;101874.25;5082553;28;20028;-56
2021/08/17 01:11:30;;;;;;;6.32;2.42;;;;;;;15.89;58.86;101879.50;5085251;28;20078;-57
2021/08/17 01:13:55;;;;;;;9.27;2.80;;;;;;;15.88;58.92;101883.03;5069636;28;20036;-58
2021/08/17 01:16:22;;;;;;;7.28;2.20;;;;;;;15.88;59.31;101870.69;5080859;28;20029;-57
2021/08/17 01:18:48;;;;;;;5.38;2.25;;;;;;;15.90;60.06;101883.94;5085059;28;20036;-58
2021/08/17 01:21:15;;;;;;;9.45;3.08;;;;;;;15.92;60.61;101884.81;5081552;28;20095;-56
2021/08/17 01:23:41;;;;;;;7.93;2.47;;;;;;;15.97;60.83;101888.28;5082414;28;20059;-56
2021/08/17 01:26:06;;;;;;;5.80;2.13;;;;;;;16.01;61.10;101883.84;5081658;28;20040;-57
2021/08/17 01:28:32;;;;;;;5.75;2.42;;;;;;;15.99;61.42;101886.47;5083564;28;20024;-57
2021/08/17 01:31:05;;;;;;;8.18;2.63;;;;;;;15.99;61.39;101883.84;5079454;28;20124;-58
2021/08/17 01:33:32;;;;;;;7.10;2.40;;;;;;;15.98;61.74;101890.91;5081090;28;20046;-57
2021/08/17 01:35:58;;;;;;;10.13;2.50;;;;;;;15.95;61.79;101884.75;5083104;28;20035;-56
2021/08/17 01:38:24;;;;;;;9.13;3.05;;;;;;;15.96;62.18;101890.06;5061936;28;20052;-58
2021/08/17 01:40:49;;;;;;;8.57;2.60;;;;;;;15.94;62.08;101897.13;5081777;28;20062;-57
2021/08/17 01:43:16;;;;;;;7.57;3.22;;;;;;;15.88;62.37;101896.28;5079766;28;20029;-58
2021/08/17 01:45:41;;;;;;;7.50;2.42;;;;;;;15.92;62.65;101909.53;5090453;28;20025;-57
2021/08/17 01:48:10;;;;;;;4.72;2.53;;;;;;;15.96;62.15;101898.00;5094606;28;20123;-57
2021/08/17 01:50:36;;;;;;;6.97;2.20;;;;;;;16.00;61.88;101890.03;5085749;28;20036;-56
2021/08/17 01:53:01;;;;;;;5.97;2.40;;;;;;;16.01;62.24;101900.63;5078081;28;20032;-57
2021/08/17 01:55:26;;;;;;;6.70;2.40;;;;;;;16.01;62.21;101902.38;5060269;28;20024;-59
2021/08/17 01:57:52;;;;;;;9.90;2.63;;;;;;;16.03;61.83;101890.00;5077060;28;20094;-56
2021/08/17 02:00:18;;;;;;;10.25;2.60;;;;;;;16.03;62.12;101887.34;5081716;28;20062;-57
2021/08/17 02:02:43;;;;;;;7.05;2.40;;;;;;;15.99;62.40;101894.44;5080230;28;20032;-56
2021/08/17 02:05:09;;;;;;;6.93;2.55;;;;;;;15.99;62.93;101881.19;5075719;28;20396;-57
2021/08/17 02:07:35;;;;;;;9.90;2.95;;;;;;;15.99;62.74;101886.47;5078720;28;20099;-57
2021/08/17 02:10:01;;;;;;;6.30;2.80;;;;;;;16.04;61.77;101892.63;5081353;28;20044;-54
2021/08/17 02:12:27;;;;;;;7.53;2.58;;;;;;;16.03;61.89;101885.59;5079411;28;20033;-56
2021/08/17 02:14:52;;;;;;;7.00;2.78;;;;;;;16.01;62.23;101892.69;5073200;28;20100;-57
2021/08/17 02:17:17;;;;;;;7.47;3.00;;;;;;;15.97;62.47;101893.56;5075724;28;20098;-57
2021/08/17 02:19:43;;;;;;;8.95;3.78;;;;;;;15.91;63.39;101883.91;5083308;28;20441;-56
2021/08/17 02:22:08;;;;;;;7.72;3.35;;;;;;;15.85;63.44;101883.06;5073958;28;20096;-57
2021/08/17 02:24:34;;;;;;;8.70;3.30;;;;;;;15.81;64.23;101876.03;5069321;28;20115;-55
2021/08/17 02:26:59;;;;;;;9.27;3.65;;;;;;;15.76;65.34;101884.00;5078380;28;20036;-56
2021/08/17 02:29:24;;;;;;;12.80;4.22;;;;;;;15.72;65.46;101882.25;5079034;28;20567;-57
2021/08/17 02:31:50;;;;;;;14.77;4.28;;;;;;;15.74;65.39;101880.50;5081631;28;20024;-55
2021/08/17 02:34:15;;;;;;;6.32;3.53;;;;;;;15.78;65.92;101880.47;5052319;28;20089;-56
2021/08/17 02:36:41;;;;;;;11.93;4.55;;;;;;;15.86;66.60;101875.13;5072283;28;20471;-55
2021/08/17 02:39:06;;;;;;;11.85;5.13;;;;;;;15.85;66.74;101873.34;5070051;28;20049;-56
2021/08/17 02:41:32;;;;;;;11.15;5.07;;;;;;;15.80;67.39;101875.13;5083554;28;20063;-57
2021/08/17 02:43:57;;;;;;;13.32;5.57;;;;;;;15.76;68.29;101866.38;5076642;28;20029;-57
2021/08/17 02:46:22;;;;;;;13.25;6.28;;;;;;;15.74;68.73;101876.06;5080953;28;20039;-58
2021/08/17 02:48:48;;;;;;;10.65;5.63;;;;;;;15.78;68.51;101883.13;5082450;28;20037;-56
2021/08/17 02:51:15;;;;;;;10.70;5.30;;;;;;;15.79;68.51;101882.22;5082987;28;20043;-57
2021/08/17 02:53:40;;;;;;;12.68;5.20;;;;;;;15.81;69.32;101870.75;5083682;28;20040;-56
2021/08/17 02:56:05;;;;;;;10.77;4.72;;;;;;;15.80;68.88;101869.84;5072082;28;20049;-56
2021/08/17 02:58:31;;;;;;;13.30;6.20;;;;;;;15.82;69.00;101864.53;5070357;28;20103;-54
2021/08/17 03:00:56;;;;;;;13.13;5.15;;;;;;;15.83;68.73;101864.53;5072851;28;20029;-58
2021/08/17 03:03:21;;;;;;;11.38;5.20;;;;;;;15.86;68.87;101866.28;5083260;28;20379;-55
2021/08/17 03:05:47;;;;;;;10.52;5.20;;;;;;;15.85;68.94;101872.47;5066567;28;20116;-55
2021/08/17 03:08:12;;;;;;;17.38;5.78;;;;;;;15.79;69.54;101862.81;5080118;28;20041;-55
2021/08/17 03:10:39;;;;;;;11.80;4.80;;;;;;;15.73;69.68;101871.66;5080373;28;20064;-56
2021/08/17 03:13:06;;;;;;;13.70;5.97;;;;;;;15.69;69.89;101869.00;5080812;28;20037;-56
2021/08/17 03:15:35;;;;;;;10.88;5.72;;;;;;;15.60;70.24;101860.22;5086419;28;20036;-57
2021/08/17 03:18:04;;;;;;;14.70;5.45;;;;;;;15.56;70.82;101865.56;5097460;28;20040;-56
2021/08/17 03:20:32;;;;;;;14.85;5.93;;;;;;;15.53;71.02;101861.16;5071155;28;20037;-55
2021/08/17 03:22:58;;;;;;;11.13;5.80;;;;;;;15.53;70.57;101862.94;5055130;28;20044;-55
2021/08/17 03:25:26;;;;;;;16.73;6.75;;;;;;;15.46;71.43;101862.06;5085858;28;20028;-56
2021/08/17 03:27:52;;;;;;;11.85;6.20;;;;;;;15.44;71.11;101855.03;5082675;28;20134;-57
2021/08/17 03:30:19;;;;;;;12.20;5.45;;;;;;;15.50;70.63;101863.84;5083463;28;20058;-56
2021/08/17 03:32:44;;;;;;;9.90;5.20;;;;;;;15.50;70.76;101852.34;5085196;28;20051;-55
2021/08/17 03:35:11;;;;;;;16.83;6.25;;;;;;;15.50;70.82;101853.25;5085811;28;20017;-55
2021/08/17 03:37:39;;;;;;;14.32;6.18;;;;;;;15.51;70.83;101851.47;5075302;28;20048;-56
2021/08/17 03:40:13;;;;;;;13.57;6.68;;;;;;;15.52;70.83;101855.84;5076914;28;20120;-57
2021/08/17 03:42:39;;;;;;;12.90;6.00;;;;;;;15.45;71.47;101852.38;5080740;28;20025;-56
2021/08/17 03:45:07;;;;;;;12.63;5.93;;;;;;;15.62;70.18;101844.34;5076428;28;20095;-55
2021/08/17 03:47:32;;;;;;;13.98;6.25;;;;;;;15.57;70.90;101841.69;5081003;28;20040;-55
2021/08/17 03:49:58;;;;;;;14.40;6.97;;;;;;;15.56;70.87;101837.31;5082607;28;20089;-56
2021/08/17 03:52:23;;;;;;;13.80;6.82;;;;;;;15.49;71.78;101847.94;5075620;28;20037;-57
2021/08/17 03:54:49;;;;;;;17.77;6.57;;;;;;;15.44;71.52;101850.59;5074599;28;20034;-59
2021/08/17 03:57:14;;;;;;;16.83;7.50;;;;;;;15.45;71.15;101841.78;5102576;28;20048;-55
2021/08/17 03:59:39;;;;;;;12.90;6.88;;;;;;;15.42;71.93;101847.09;5096227;28;20084;-56
2021/08/17 04:02:05;;;;;;;11.90;5.72;;;;;;;15.40;71.94;101848.88;5113553;28;20039;-55
2021/08/17 04:04:30;;;;;;;18.08;6.93;;;;;;;15.36;72.06;101850.66;5107056;28;20036;-55
2021/08/17 04:06:55;;;;;;;18.88;7.03;;;;;;;15.31;73.06;101854.22;5116211;28;20479;-55
2021/08/17 04:09:21;;;;;;;16.70;6.53;;;;;;;15.33;72.76;101860.38;5098897;28;20077;-55
2021/08/17 04:11:46;;;;;;;16.13;6.45;;;;;;;15.41;72.16;101858.59;5111671;28;20020;-55
2021/08/17 04:14:11;;;;;;;16.40;6.97;;;;;;;15.46;71.67;101859.41;5093540;28;20674;-54
2021/08/17 04:16:37;;;;;;;13.95;6.63;;;;;;;15.46;72.59;101862.06;5104710;28;20028;-56
2021/08/17 04:19:02;;;;;;;15.05;6.95;;;;;;;15.46;71.94;101862.06;5118322;28;20032;-55
2021/08/17 04:21:28;;;;;;;17.77;6.63;;;;;;;15.48;71.89;101852.38;5115465;28;20038;-54
2021/08/17 04:23:53;;;;;;;14.45;7.45;;;;;;;15.51;71.46;101856.75;5081468;28;20028;-56
2021/08/17 04:26:19;;;;;;;15.98;6.47;;;;;;;15.49;72.16;101854.13;5090846;28;20445;-57
2021/08/17 04:28:44;;;;;;;19.52;7.53;;;;;;;15.51;71.70;101860.28;5095851;28;20035;-55
2021/08/17 04:31:09;;;;;;;17.92;7.20;;;;;;;15.49;72.38;101859.41;5114599;28;20032;-57
2021/08/17 04:33:35;;;;;;;14.02;6.55;;;;;;;15.58;71.84;101863.78;5108199;28;20020;-58
2021/08/17 04:36:00;;;;;;;16.50;7.22;;;;;;;15.62;71.02;101857.59;5102512;28;20032;-56
2021/08/17 04:38:26;;;;;;;20.35;8.23;;;;;;;15.62;71.85;101856.72;5110213;28;20028;-55
2021/08/17 04:40:51;;;;;;;15.85;7.82;;;;;;;15.67;71.15;101847.84;5106000;28;20028;-56
2021/08/17 04:43:16;;;;;;;19.95;8.50;;;;;;;15.74;71.39;101854.00;5098388;28;20032;-58
2021/08/17 04:45:42;;;;;;;19.20;8.68;;;;;;;15.79;71.39;101854.84;5115130;28;20035;-57
2021/08/17 04:48:07;;;;;;;25.70;9.05;;;;;;;15.81;71.65;101845.13;5107148;28;20036;-57
2021/08/17 04:50:33;;;;;;;23.60;9.38;;;;;;;15.83;71.29;101851.28;5102065;28;20370;-56
2021/08/17 04:52:58;;;;;;;23.25;9.27;;;;;;;15.81;71.80;101849.53;5104064;28;20058;-57
2021/08/17 04:55:23;;;;;;;20.40;9.30;;;;;;;15.88;71.03;101852.13;5104760;28;20032;-56
2021/08/17 04:57:50;;;;;;;15.15;7.00;;;;;;;15.90;71.16;101845.06;5095540;28;20493;-58
2021/08/17 05:00:16;;;;;;;23.23;9.73;;;;;;;15.85;71.78;101841.53;5104698;28;20019;-58
2021/08/17 05:02:41;;;;;;;19.63;7.75;;;;;;;15.84;71.86;101845.09;5122635;28;20110;-57
2021/08/17 05:05:07;;;;;;;19.55;8.18;;;;;;;15.85;71.69;101848.63;5105579;28;20100;-57
2021/08/17 05:07:37;;;;;;;16.63;6.82;;;;;;;15.79;71.81;101847.78;5117445;28;20019;-58
2021/08/17 05:10:02;;;;;;;;;;;;;;;15.80;71.76;101848.63;5090669;28;20032;-57
2021/08/17 05:12:27;;;;;;;19.73;7.95;;;;;;;15.87;71.45;101845.06;5095288;28;19927;-57
2021/08/17 05:14:53;;;;;;;12.40;6.45;;;;;;;15.97;71.19;101851.16;5105173;28;20062;-56
2021/08/17 05:17:18;;;;;;;17.05;7.75;;;;;;;16.00;70.86;101852.94;5101985;28;20150;-57
2021/08/17 05:19:43;;;;;;;15.65;7.00;;;;;;;16.05;71.11;101841.41;5112650;28;20032;-56
2021/08/17 05:22:08;;;;;;;16.98;7.82;;;;;;;16.06;71.01;101844.91;5094978;28;20032;-56
2021/08/17 05:24:34;;;;;;;16.05;7.22;;;;;;;16.05;71.24;101845.78;5104720;28;20040;-57
2021/08/17 05:26:59;;;;;;;13.15;6.88;;;;;;;16.00;71.92;101837.03;5096584;28;20036;-57
2021/08/17 05:29:24;;;;;;;14.80;6.40;;;;;;;16.05;71.13;101827.25;5101443;28;20035;-57
2021/08/17 05:31:50;;;;;;;17.85;6.85;;;;;;;15.98;71.69;101827.31;5104498;28;20036;-57
2021/08/17 05:34:15;;;;;;;14.05;5.75;;;;;;;16.02;71.50;101837.88;5109530;28;20092;-57
2021/08/17 05:36:40;;;;;;;21.40;7.00;;;;;;;15.98;71.34;101837.91;5089224;28;20024;-57
2021/08/17 05:39:06;;;;;;;22.45;7.50;;;;;;;15.94;71.91;101830.88;5100219;28;20032;-56
2021/08/17 05:41:31;;;;;;;20.60;8.10;;;;;;;15.89;72.08;101831.81;5105367;28;20032;-58
2021/08/17 05:43:56;;;;;;;17.00;6.68;;;;;;;15.85;72.65;101828.28;5087670;28;20201;-56
2021/08/17 05:46:22;;;;;;;19.00;6.60;;;;;;;15.85;72.51;101833.59;5094806;28;20035;-56
2021/08/17 05:48:47;;;;;;;17.10;6.80;;;;;;;15.83;72.66;101821.25;5093257;28;20036;-57
2021/08/17 05:51:13;;;;;;;16.63;6.40;;;;;;;15.79;72.92;101833.66;5101158;28;20086;-54
2021/08/17 05:53:38;;;;;;;13.50;6.45;;;;;;;15.78;73.71;101832.78;5090297;28;20031;-57
2021/08/17 05:56:04;;;;;;;14.35;5.95;;;;;;;15.81;72.95;101833.66;5093743;28;20049;-57
2021/08/17 05:58:30;;;;;;;16.77;6.47;;;;;;;15.81;72.98;101833.66;5065527;28;20082;-54
2021/08/17 06:00:55;;;;;;;12.98;5.95;;;;;;;15.81;73.58;101831.88;5085953;28;20031;-56
2021/08/17 06:03:21;;;;;;;16.40;6.80;;;;;;;15.81;73.79;101841.59;5054888;28;20035;-58
2021/08/17 06:05:46;;;;;;;17.58;6.10;;;;;;;15.83;73.37;101838.03;5075678;28;20126;-55
2021/08/17 06:08:11;;;;;;;17.95;6.60;;;;;;;15.87;73.50;101829.16;5082295;28;20036;-54
2021/08/17 06:10:37;;;;;;;16.77;6.85;;;;;;;15.89;73.35;101834.44;5081468;28;20039;-54
2021/08/17 06:13:02;;;;;;;12.35;6.00;;;;;;;15.94;73.14;101840.59;5081063;28;20036;-56
2021/08/17 06:15:28;;;;;;;16.00;6.43;;;;;;;16.00;73.32;101839.69;5080728;28;20029;-56
2021/08/17 06:17:53;;;;;;;14.77;5.82;;;;;;;16.08;72.40;101841.34;5081737;28;20059;-56
2021/08/17 06:20:19;;;;;;;20.92;6.75;;;;;;;16.13;72.22;101838.69;5082183;28;20090;-55
2021/08/17 06:22:44;;;;;;;11.85;4.88;;;;;;;16.21;71.67;101847.44;5084636;28;20085;-58
2021/08/17 06:25:10;;;;;;;19.95;6.65;;;;;;;16.27;71.56;101852.66;5084450;28;20383;-57
2021/08/17 06:27:37;;;;;;;15.35;6.43;;;;;;;16.35;71.22;101847.28;5075132;28;20144;-56
2021/08/17 06:30:04;;;;;;;16.55;6.25;;;;;;;16.41;71.28;101855.22;5080034;28;20120;-55
2021/08/17 06:32:30;;;;;;;17.15;5.95;;;;;;;16.49;70.72;101863.97;5057109;28;20031;-57
2021/08/17 06:34:55;;;;;;;12.88;5.97;;;;;;;16.50;70.51;101862.19;5082932;28;20040;-56
2021/08/17 06:37:21;;;;;;;10.07;4.93;;;;;;;16.62;69.40;101869.16;5072554;28;20056;-55
2021/08/17 06:39:46;;;;;;;20.17;5.70;;;;;;;16.66;69.34;101871.75;5082969;28;20109;-57
2021/08/17 06:42:11;;;;;;;14.23;5.68;;;;;;;16.71;68.77;101864.63;5070558;28;20029;-55
2021/08/17 06:44:37;;;;;;;8.25;4.78;;;;;;;16.74;68.14;101861.03;5074231;28;20033;-56
2021/08/17 06:47:02;;;;;;;13.73;5.07;;;;;;;16.75;68.00;101852.22;5081903;28;20088;-57
2021/08/17 06:49:28;;;;;;;13.48;5.75;;;;;;;16.68;68.77;101856.69;5083209;28;20070;-57
2021/08/17 06:51:53;;;;;;;15.82;5.57;;;;;;;16.71;68.40;101855.75;5082128;28;20037;-56
2021/08/17 06:54:18;;;;;;;11.07;4.88;;;;;;;16.73;67.80;101861.97;5087605;28;20123;-57
2021/08/17 06:56:44;;;;;;;13.82;5.03;;;;;;;16.62;68.27;101861.19;5079466;28;20076;-56
2021/08/17 06:59:09;;;;;;;14.02;5.30;;;;;;;16.55;68.93;101847.09;5085976;28;20174;-54
2021/08/17 07:01:35;;;;;;;13.57;5.72;;;;;;;16.49;68.78;101831.25;5076673;28;20060;-56
2021/08/17 07:04:00;;;;;;;11.93;5.18;;;;;;;16.52;68.53;101829.47;5077756;28;20433;-57
2021/08/17 07:06:27;;;;;;;10.88;4.95;;;;;;;16.55;67.88;101826.75;5083443;28;20070;-56
2021/08/17 07:08:53;;;;;;;9.50;4.35;;;;;;;16.62;67.95;101832.00;5053918;28;20043;-55
2021/08/17 07:11:18;;;;;;;8.65;4.32;;;;;;;16.62;67.40;101832.00;5083736;28;20029;-56
2021/08/17 07:13:43;;;;;;;12.45;5.68;;;;;;;16.65;67.71;101824.88;5077857;28;20032;-55
2021/08/17 07:16:09;;;;;;;10.82;4.53;;;;;;;16.66;67.86;101823.97;5077524;28;20037;-57
2021/08/17 07:18:35;;;;;;;11.35;5.50;;;;;;;16.69;67.56;101825.72;5084203;28;20508;-58
2021/08/17 07:21:00;;;;;;;12.38;4.32;;;;;;;16.77;66.29;101824.75;5073119;28;20029;-59
2021/08/17 07:23:26;;;;;;;8.93;4.38;;;;;;;16.81;66.05;101822.94;5082706;28;20119;-57
2021/08/17 07:25:52;;;;;;;12.57;5.20;;;;;;;16.77;66.32;101824.75;5084165;28;20447;-58
2021/08/17 07:28:18;;;;;;;12.18;4.72;;;;;;;16.83;66.23;101833.56;5078696;28;20130;-58
2021/08/17 07:30:44;;;;;;;9.63;4.28;;;;;;;16.92;64.72;101831.69;5088839;28;20417;-54
2021/08/17 07:33:09;;;;;;;10.85;5.22;;;;;;;16.86;65.45;101830.84;5105128;28;20111;-57
2021/08/17 07:35:35;;;;;;;14.35;4.38;;;;;;;16.91;64.94;101842.31;5084451;28;20115;-58
2021/08/17 07:38:01;;;;;;;11.90;4.05;;;;;;;17.11;63.91;101844.72;5083805;28;20037;-56
2021/08/17 07:40:27;;;;;;;9.18;4.38;;;;;;;17.23;64.05;101846.34;5083022;28;20066;-59
2021/08/17 07:42:52;;;;;;;9.75;4.18;;;;;;;17.24;63.92;101841.00;5085153;28;20077;-56
2021/08/17 07:45:18;;;;;;;9.88;3.85;;;;;;;17.31;63.87;101831.16;5071691;28;20090;-56
2021/08/17 07:47:45;;;;;;;11.80;3.88;;;;;;;17.43;63.04;101833.66;5083659;28;20078;-58
2021/08/17 07:50:12;;;;;;;8.38;3.72;;;;;;;17.46;62.88;101838.91;5076756;28;20036;-56
2021/08/17 07:52:38;;;;;;;7.80;3.90;;;;;;;17.44;63.66;101847.81;5086807;28;20028;-58
2021/08/17 07:55:05;;;;;;;9.60;4.28;;;;;;;17.40;62.81;101841.66;5083203;28;20112;-59
2021/08/17 07:57:31;;;;;;;7.40;4.20;;;;;;;17.30;63.42;101842.69;5109256;28;20055;-59
2021/08/17 07:59:57;;;;;;;12.88;4.25;;;;;;;17.15;63.43;101855.28;5119056;28;20028;-59
2021/08/17 08:02:22;;;;;;;13.57;4.97;;;;;;;17.12;64.63;101855.31;5103465;28;20031;-58
2021/08/17 08:04:48;;;;;;;10.35;4.30;;;;;;;17.08;64.60;101850.06;5106714;28;20032;-58
2021/08/17 08:07:13;;;;;;;10.60;4.18;;;;;;;17.11;64.53;101856.22;5107911;28;20036;-56
2021/08/17 08:09:38;;;;;;;9.60;4.00;;;;;;;17.17;62.37;101836.66;5095200;28;20051;-58
2021/08/17 08:12:05;;;;;;;11.82;3.80;;;;;;;17.12;63.32;101839.38;5093852;28;20067;-57
2021/08/17 08:14:30;;;;;;;9.75;3.50;;;;;;;17.06;62.82;101836.81;5105026;28;20021;-58
2021/08/17 08:16:58;;;;;;;7.43;3.53;;;;;;;17.09;62.37;101834.13;5109252;28;20061;-57
2021/08/17 08:19:23;;;;;;;9.65;3.75;;;;;;;17.00;62.46;101833.38;5113407;28;20059;-58
2021/08/17 08:21:49;;;;;;;7.35;3.55;;;;;;;17.01;62.65;101838.63;5103485;28;20032;-56
2021/08/17 08:24:14;;;;;;;5.88;3.30;;;;;;;17.00;62.64;101842.19;5116164;28;20062;-58
2021/08/17 08:26:39;;;;;;;10.73;3.78;;;;;;;16.89;63.25;101841.44;5112045;28;20099;-58
2021/08/17 08:29:05;;;;;;;9.85;3.78;;;;;;;16.95;63.40;101857.28;5117126;28;20054;-58
2021/08/17 08:31:31;;;;;;;11.80;3.85;;;;;;;17.01;63.10;101864.31;5115953;28;20470;-58
2021/08/17 08:33:56;;;;;;;11.07;3.53;;;;;;;16.97;63.62;101868.78;5106376;28;20037;-59
2021/08/17 08:36:21;;;;;;;6.88;3.05;;;;;;;17.02;63.11;101869.59;5099574;28;20049;-58
2021/08/17 08:38:47;;;;;;;6.30;3.03;;;;;;;16.95;64.62;101876.75;5108349;28;20441;-58
2021/08/17 08:41:16;;;;;;;11.13;3.20;;;;;;;16.90;63.06;101867.97;5118272;28;20100;-57
2021/08/17 08:43:43;;;;;;;7.75;3.05;;;;;;;16.91;64.12;101866.19;5096143;28;20029;-58
2021/08/17 08:46:15;;;;;;;10.10;3.00;;;;;;;16.82;63.80;101869.81;5111958;28;20039;-58
2021/08/17 08:48:47;;;;;;;7.88;3.15;;;;;;;16.83;63.71;101871.59;5096971;28;20024;-57
2021/08/17 08:51:15;;;;;;;12.55;3.53;;;;;;;16.73;64.43;101868.13;5104846;28;20096;-56
2021/08/17 08:53:40;;;;;;;5.85;3.22;;;;;;;16.78;63.53;101868.06;5118563;28;20519;-58
2021/08/17 08:56:06;;;;;;;6.38;3.30;;;;;;;16.70;63.89;101861.97;5111599;28;20040;-58
2021/08/17 08:58:31;;;;;;;7.95;3.15;;;;;;;16.64;64.25;101862.06;5098732;28;20048;-57
2021/08/17 09:00:57;;;;;;;9.07;3.97;;;;;;;16.56;64.72;101854.19;5105084;28;20032;-54
2021/08/17 09:03:49;;;;;;;10.35;3.95;;;;;;;16.45;65.32;101854.28;5104627;28;20290;-58
2021/08/17 09:06:32;;;;;;;8.82;3.13;;;;;;;16.44;65.38;101841.91;5105645;28;20036;-57
2021/08/17 09:09:08;;;;;;;5.85;3.22;;;;;;;16.43;65.55;101848.13;5100043;28;20382;-58
2021/08/17 09:11:35;;;;;;;6.20;3.60;;;;;;;16.49;65.52;101845.41;5103591;28;20082;-57
2021/08/17 09:14:31;;;;;;;8.50;3.95;;;;;;;16.44;65.67;101843.69;5110949;28;20038;-58
2021/08/17 09:17:05;;;;;;;10.38;3.30;;;;;;;16.44;65.17;101838.38;5099165;28;20124;-58
2021/08/17 09:19:38;;;;;;;5.20;2.92;;;;;;;16.42;64.90;101840.16;5078791;28;20029;-59
2021/08/17 09:22:25;;;;;;;6.10;3.45;;;;;;;16.47;64.51;101843.66;5103844;28;20800;-59
2021/08/17 09:24:52;;;;;;;8.15;2.90;;;;;;;16.44;65.16;101848.97;5105315;28;20046;-59
2021/08/17 09:27:26;;;;;;;7.00;2.78;;;;;;;16.45;65.30;101856.94;5114211;28;20413;-59
2021/08/17 09:30:10;;;;;;;5.28;3.00;;;;;;;16.41;65.86;101856.97;5093798;28;20032;-59
2021/08/17 09:32:52;;;;;;;5.90;2.72;;;;;;;16.34;67.01;101859.69;5104699;28;20031;-58
2021/08/17 09:35:19;;;;;;;7.68;2.90;;;;;;;16.23;67.93;101850.94;5108778;28;20035;-59
2021/08/17 09:38:02;;;;;;;6.78;2.67;;;;;;;16.14;68.75;101861.63;5104680;28;20032;-58
2021/08/17 09:40:28;;;;;;;5.82;3.20;;;;;;;16.10;69.47;101858.13;5097467;28;20066;-58
2021/08/17 09:42:53;;;;;;;9.77;3.40;;;;;;;16.01;70.41;101852.94;5098474;28;20035;-58
2021/08/17 09:45:19;;;;;;;6.15;3.15;;;;;;;16.03;70.45;101847.59;5110719;28;20036;-58
2021/08/17 09:47:55;;;;;;;6.47;3.00;;;;;;;15.95;72.18;101843.25;5092434;28;20028;-55
2021/08/17 09:50:24;;;;;;;8.90;3.47;;;;;;;15.87;73.81;101855.66;5101616;28;20046;-55
2021/08/17 09:53:04;;;;;;;8.95;3.30;;;;;;;15.78;74.56;101859.28;5098753;28;20083;-57
2021/08/17 09:55:30;;;;;;;7.32;3.50;;;;;;;15.75;76.76;101845.16;5095709;28;20023;-57
2021/08/17 09:57:55;;;;;;;8.80;3.80;;;;;;;15.73;75.59;101837.22;5111310;28;20101;-57
2021/08/17 10:00:20;;;;;;;5.75;3.53;;;;;;;15.70;75.88;101829.25;5098082;28;20028;-55
2021/08/17 10:02:48;;;;;;;5.30;3.20;;;;;;;15.76;75.13;101825.72;5103364;28;20440;-56
2021/08/17 10:05:15;;;;;;;6.80;4.10;;;;;;;15.65;76.95;101825.78;5103103;28;20058;-56
2021/08/17 10:07:42;;;;;;;5.45;3.40;;;;;;;15.67;76.58;101820.44;5105420;28;20038;-55
2021/08/17 10:10:10;;;;;;;10.90;4.40;;;;;;;15.65;77.40;101822.22;5103906;28;20029;-55
2021/08/17 10:12:36;;;;;;;5.38;3.63;;;;;;;15.55;78.45;101814.34;5106092;28;20032;-55
2021/08/17 10:15:06;;;;;;;8.05;3.65;;;;;;;15.53;78.31;101809.97;5085331;28;20100;-57
2021/08/17 10:17:31;;;;;;;7.35;4.03;;;;;;;15.56;78.26;101817.91;5088308;28;20403;-57
2021/08/17 10:19:57;;;;;;;7.70;3.85;;;;;;;15.55;78.36;101821.41;5103791;28;20025;-58
2021/08/17 10:22:23;;;;;;;7.35;3.50;;;;;;;15.60;77.51;101822.28;5105068;28;20599;-59
2021/08/17 10:24:49;;;;;;;7.43;3.38;;;;;;;15.62;77.43;101828.44;5104313;28;20048;-57
2021/08/17 10:27:17;;;;;;;10.40;3.55;;;;;;;15.64;76.94;101826.66;5112664;28;20053;-60
2021/08/17 10:30:00;;;;;;;8.32;3.75;;;;;;;15.70;77.34;101828.38;5109458;28;20035;-61
2021/08/17 10:32:46;;;;;;;7.45;3.47;;;;;;;15.75;76.80;101830.13;5113322;28;20055;-61
2021/08/17 10:35:29;;;;;;;7.72;3.30;;;;;;;15.76;77.15;101825.72;5101936;28;20038;-61
2021/08/17 10:38:07;;;;;;;7.97;3.35;;;;;;;15.74;76.67;101819.53;5099678;28;20050;-60
2021/08/17 10:40:51;;;;;;;8.43;3.50;;;;;;;15.71;75.95;101828.38;5104638;28;20032;-60
2021/08/17 10:43:31;;;;;;;7.75;3.55;;;;;;;15.70;77.34;101808.06;5098672;28;20139;-60
2021/08/17 10:45:59;;;;;;;5.05;3.30;;;;;;;15.75;77.17;101816.03;5102110;28;20520;-61
2021/08/17 10:48:43;;;;;;;5.38;3.75;;;;;;;15.70;79.27;101823.09;5103898;28;20485;-61
2021/08/17 10:51:10;;;;;;;6.63;4.03;;;;;;;15.73;79.12;101817.78;5103523;28;20027;-61
2021/08/17 10:53:43;;;;;;;7.88;3.45;;;;;;;15.69;78.76;101818.66;5104707;28;20036;-61
2021/08/17 10:56:17;;;;;;;8.25;4.03;;;;;;;15.70;79.99;101816.00;5104708;28;20054;-61
2021/08/17 10:58:45;;;;;;;9.50;4.38;;;;;;;15.65;79.50;101808.97;5099261;28;20078;-61
2021/08/17 11:01:11;;;;;;;7.33;3.73;;;;;;;15.73;78.75;101820.41;5103046;28;20471;-61
2021/08/17 11:03:47;;;;;;;6.88;3.75;;;;;;;15.66;79.43;101819.56;5101288;28;20032;-60
2021/08/17 11:06:37;;;;;;;10.18;3.40;;;;;;;15.61;79.51;101816.06;5102282;28;20020;-62
2021/08/17 11:09:33;;;;;;;7.35;3.60;;;;;;;15.58;80.40;101813.47;5100529;28;20047;-60
2021/08/17 11:12:10;;;;;;;5.50;3.20;;;;;;;15.61;79.81;101813.41;5099423;28;20043;-60
2021/08/17 11:14:43;;;;;;;8.73;3.40;;;;;;;15.66;79.87;101808.09;5103424;28;20087;-60
2021/08/17 11:17:11;;;;;;;9.20;3.10;;;;;;;15.67;80.43;101804.53;5104839;28;20286;-59
2021/08/17 11:19:43;;;;;;;6.85;3.20;;;;;;;15.58;80.31;101809.03;5086946;28;20016;-60
2021/08/17 11:22:11;;;;;;;6.53;2.53;;;;;;;15.58;79.08;101805.50;5107229;28;20084;-59